Time;durP1;ratioP1;P1;durP2;ratioP2;P2;SDS_P1;SDS_P2;PMS_P1;PMS_P2;Temp;Humidity;BMP_temperature;BMP_pressure;BME280_temperature;BME280_humidity;BME280_pressure;Samples;Min_cycle;Max_cycle;Signal;HPM_P1;HPM_P2
2023/06/27 00:01:16;;;;;;;;;4.00;1.00;;;;;28.47;33.11;102196.44;5072867;28;47234;-78
2023/06/27 00:03:41;;;;;;;;;1.00;1.00;;;;;28.43;33.15;102199.66;5056981;28;45354;-78
2023/06/27 00:06:07;;;;;;;;;1.00;1.00;;;;;28.42;33.00;102190.00;5057338;28;45802;-79
2023/06/27 00:08:33;;;;;;;;;3.00;2.00;;;;;28.49;33.16;102190.91;5057560;27;45406;-79
2023/06/27 00:10:59;;;;;;;;;4.00;2.67;;;;;28.50;32.71;102195.22;5057479;27;45695;-79
2023/06/27 00:13:24;;;;;;;;;1.33;1.33;;;;;28.48;33.05;102182.03;5072370;28;45434;-79
2023/06/27 00:15:52;;;;;;;;;4.33;2.67;;;;;28.51;32.82;102178.16;5072669;28;45397;-79
2023/06/27 00:18:21;;;;;;;;;2.33;2.00;;;;;28.54;32.58;102190.34;5056709;28;45712;-79
2023/06/27 00:20:50;;;;;;;;;1.00;1.00;;;;;28.55;32.66;102186.66;5072755;27;46273;-79
2023/06/27 00:23:16;;;;;;;;;2.33;2.00;;;;;28.55;33.36;102190.13;5077027;28;45475;-78
2023/06/27 00:25:43;;;;;;;;;2.00;2.00;;;;;28.53;32.95;102186.81;5093105;27;45524;-79
2023/06/27 00:28:09;;;;;;;;;2.67;1.00;;;;;28.49;32.95;102172.16;5092438;27;45584;-79
2023/06/27 00:30:34;;;;;;;;;3.33;2.00;;;;;28.48;32.82;102167.81;5092583;27;47241;-79
2023/06/27 00:32:59;;;;;;;;;3.00;3.00;;;;;28.56;33.48;102182.94;5077045;27;45299;-79
2023/06/27 00:35:26;;;;;;;;;3.00;1.67;;;;;28.51;32.76;102172.81;5077034;27;45280;-78
2023/06/27 00:37:52;;;;;;;;;5.00;2.00;;;;;28.55;33.27;102179.41;5076943;27;45428;-79
2023/06/27 00:40:18;;;;;;;;;3.33;3.00;;;;;28.51;33.28;102170.13;5076760;28;45545;-79
2023/06/27 00:42:43;;;;;;;;;1.33;1.33;;;;;28.52;33.26;102177.94;5091495;27;45367;-78
2023/06/27 00:45:09;;;;;;;;;4.00;2.67;;;;;28.55;32.95;102179.41;5077115;28;45421;-79
2023/06/27 00:47:34;;;;;;;;;2.00;2.00;;;;;28.54;33.04;102172.41;5092684;27;45540;-79
2023/06/27 00:50:00;;;;;;;;;3.00;2.00;;;;;28.59;33.39;102182.56;5075040;28;48009;-79
2023/06/27 00:52:25;;;;;;;;;3.00;1.67;;;;;28.54;33.25;102166.22;5076814;27;45415;-79
2023/06/27 00:54:51;;;;;;;;;1.67;1.67;;;;;28.53;33.52;102160.03;5075302;28;45450;-79
2023/06/27 00:57:17;;;;;;;;;3.67;2.33;;;;;28.58;33.20;102172.84;5092321;27;45361;-79
2023/06/27 00:59:45;;;;;;;;;3.00;3.00;;;;;28.60;33.19;102168.97;5076490;27;45402;-79
2023/06/27 01:02:12;;;;;;;;;4.00;3.00;;;;;28.59;33.16;102164.66;5075216;28;46137;-79
2023/06/27 01:04:39;;;;;;;;;2.00;2.00;;;;;28.61;33.36;102164.44;5076424;27;45527;-79
2023/06/27 01:07:18;;;;;;;;;2.67;1.33;;;;;28.54;33.20;102158.19;5092644;27;45371;-79
2023/06/27 01:09:57;;;;;;;;;3.33;2.00;;;;;28.54;33.05;102158.19;5108930;27;46779;-78
2023/06/27 01:12:51;;;;;;;;;2.33;2.33;;;;;28.62;33.01;102174.94;5074610;27;45414;-79
2023/06/27 01:15:17;;;;;;;;;2.33;2.33;;;;;28.60;33.39;102168.13;5075009;28;45247;-79
2023/06/27 01:17:43;;;;;;;;;3.33;2.00;;;;;28.56;33.71;102166.88;5074858;28;45448;-79
2023/06/27 01:20:11;;;;;;;;;3.33;1.33;;;;;28.54;33.60;102160.88;5083497;27;48113;-79
2023/06/27 01:22:39;;;;;;;;;4.33;3.00;;;;;28.58;33.61;102170.16;5076156;27;45476;-79
2023/06/27 01:25:07;;;;;;;;;2.67;2.33;;;;;28.55;33.83;102155.31;5076241;28;45254;-79
2023/06/27 01:27:33;;;;;;;;;4.00;2.67;;;;;28.63;33.81;102167.75;5075893;27;45424;-79
2023/06/27 01:29:58;;;;;;;;;2.00;1.00;;;;;28.60;33.64;102157.41;5074243;27;47561;-78
2023/06/27 01:32:36;;;;;;;;;3.00;2.00;;;;;28.62;33.27;102163.44;5075457;27;45358;-79
2023/06/27 01:35:05;;;;;;;;;2.67;2.67;;;;;28.65;33.69;102168.38;5076326;27;45287;-78
2023/06/27 01:37:36;;;;;;;;;3.67;3.00;;;;;28.59;33.78;102163.81;5074773;28;45297;-79
2023/06/27 01:40:14;;;;;;;;;1.33;1.33;;;;;28.60;33.98;102160.09;5075612;27;46594;-79
2023/06/27 01:42:42;;;;;;;;;2.00;2.00;;;;;28.57;33.86;102155.16;5075795;28;45389;-79
2023/06/27 01:45:09;;;;;;;;;2.00;2.00;;;;;28.67;33.59;102174.38;5091938;27;45452;-79
2023/06/27 01:47:38;;;;;;;;;3.00;1.33;;;;;28.60;33.68;102168.97;5074766;28;45639;-79
2023/06/27 01:50:03;;;;;;;;;2.00;2.00;;;;;28.64;33.69;102169.41;5074038;28;47353;-79
2023/06/27 01:52:29;;;;;;;;;1.00;1.00;;;;;28.62;33.96;102174.94;5091356;27;45367;-79
2023/06/27 01:54:54;;;;;;;;;3.33;2.00;;;;;28.65;33.75;102173.72;5075843;27;45331;-79
2023/06/27 01:57:20;;;;;;;;;2.33;1.00;;;;;28.59;33.84;102174.50;5074856;28;45262;-79
2023/06/27 01:59:45;;;;;;;;;2.00;2.00;;;;;28.66;33.52;102178.06;5091060;27;46868;-77
2023/06/27 02:02:11;;;;;;;;;2.00;2.00;;;;;28.62;33.87;102172.25;5074636;28;45376;-79
2023/06/27 02:04:36;;;;;;;;;2.00;2.00;;;;;28.57;33.58;102163.19;5091744;27;45312;-79
2023/06/27 02:07:02;;;;;;;;;3.67;2.00;;;;;28.64;33.53;102174.75;5092036;27;45656;-79
2023/06/27 02:09:27;;;;;;;;;3.67;1.00;;;;;28.61;33.62;102167.13;5074529;27;45572;-80
2023/06/27 02:11:53;;;;;;;;;3.67;3.67;;;;;28.59;33.54;102159.28;5075605;28;45451;-79
2023/06/27 02:14:18;;;;;;;;;4.00;4.00;;;;;28.66;33.79;102169.19;5091323;27;45354;-78
2023/06/27 02:16:43;;;;;;;;;3.33;0.33;;;;;28.66;34.21;102177.25;5075270;27;45616;-79
2023/06/27 02:19:09;;;;;;;;;3.67;2.67;;;;;28.64;33.93;102164.06;5074269;27;47065;-80
2023/06/27 02:21:34;;;;;;;;;2.33;1.33;;;;;28.63;33.77;102162.38;5091193;27;45371;-79
2023/06/27 02:24:00;;;;;;;;;3.00;1.67;;;;;28.61;33.61;102164.44;5075394;27;45534;-79
2023/06/27 02:26:25;;;;;;;;;5.00;1.33;;;;;28.66;33.50;102172.72;5074425;28;45471;-79
2023/06/27 02:28:52;;;;;;;;;1.67;1.00;;;;;28.62;33.88;102176.81;5090638;27;45415;-79
2023/06/27 02:31:18;;;;;;;;;2.67;1.67;;;;;28.65;34.23;102178.28;5090671;27;45362;-79
2023/06/27 02:33:43;;;;;;;;;1.67;1.67;;;;;28.70;33.94;102183.88;5075446;28;45233;-78
2023/06/27 02:36:09;;;;;;;;;2.00;2.00;;;;;28.68;33.98;102180.53;5090387;27;45235;-79
2023/06/27 02:38:34;;;;;;;;;2.00;2.00;;;;;28.67;33.94;102169.03;5090437;27;47968;-79
2023/06/27 02:40:59;;;;;;;;;2.00;2.00;;;;;28.67;33.67;102162.84;5090342;27;45647;-78
2023/06/27 02:43:25;;;;;;;;;1.00;1.00;;;;;28.66;34.19;102156.66;5078530;28;45345;-79
2023/06/27 02:45:50;;;;;;;;;2.00;2.00;;;;;28.69;34.60;102166.16;5093635;27;45524;-79
2023/06/27 02:48:16;;;;;;;;;4.00;1.00;;;;;28.67;33.79;102152.97;5094989;27;47593;-78
2023/06/27 02:50:42;;;;;;;;;2.67;2.00;;;;;28.72;33.97;102160.41;5079310;27;45282;-80
2023/06/27 02:53:07;;;;;;;;;1.50;1.00;;;;;28.69;33.72;102156.28;5078272;28;45342;-79
2023/06/27 02:55:32;;;;;;;;;2.00;2.00;;;;;28.69;33.77;102158.94;5078604;27;45475;-79
2023/06/27 02:57:58;;;;;;;;;2.00;2.00;;;;;28.68;33.80;102159.94;5079008;27;46381;-79
2023/06/27 03:00:23;;;;;;;;;0.33;0.33;;;;;28.66;34.17;102147.78;5078525;28;45432;-78
2023/06/27 03:02:49;;;;;;;;;2.67;1.00;;;;;28.67;34.10;102144.94;5077128;28;45536;-79
2023/06/27 03:05:14;;;;;;;;;3.00;3.00;;;;;28.70;33.67;102157.91;5094037;27;45441;-79
2023/06/27 03:07:39;;;;;;;;;2.00;2.00;;;;;28.70;33.58;102165.13;5076737;28;46652;-79
2023/06/27 03:10:05;;;;;;;;;2.67;2.67;;;;;28.70;33.98;102171.28;5094424;27;45412;-78
2023/06/27 03:12:31;;;;;;;;;2.00;2.00;;;;;28.65;34.17;102148.81;5094101;27;45307;-79
2023/06/27 03:14:58;;;;;;;;;1.33;1.33;;;;;28.64;33.83;102148.00;5078910;27;45595;-79
2023/06/27 03:17:24;;;;;;;;;1.67;1.67;;;;;28.65;34.08;102146.94;5093851;27;45614;-78
2023/06/27 03:19:49;;;;;;;;;2.33;1.33;;;;;28.69;33.66;102158.94;5076450;27;45255;-79
2023/06/27 03:22:14;;;;;;;;;1.00;1.00;;;;;28.70;33.60;102162.47;5077499;27;45577;-79
2023/06/27 03:24:40;;;;;;;;;1.67;1.67;;;;;28.68;34.12;102156.44;5093990;27;45253;-79
2023/06/27 03:27:05;;;;;;;;;2.50;1.00;;;;;28.70;33.99;102155.22;5076305;28;47303;-79
2023/06/27 03:29:31;;;;;;;;;2.33;2.33;;;;;28.63;33.94;102155.19;5076417;28;45387;-79
2023/06/27 03:31:57;;;;;;;;;1.00;1.00;;;;;28.70;33.60;102159.78;5076592;27;45533;-79
2023/06/27 03:34:23;;;;;;;;;3.33;3.00;;;;;28.70;33.71;102162.47;5078031;28;45448;-79
2023/06/27 03:36:48;;;;;;;;;1.33;1.33;;;;;28.72;33.73;102160.41;5077622;28;46315;-80
2023/06/27 03:39:14;;;;;;;;;3.00;1.33;;;;;28.73;34.20;102156.69;5078209;27;45432;-80
2023/06/27 03:41:39;;;;;;;;;1.00;1.00;;;;;28.70;33.80;102149.06;5077212;27;45470;-79
2023/06/27 03:44:05;;;;;;;;;3.33;1.00;;;;;28.68;34.02;102151.91;5077716;28;45674;-78
2023/06/27 03:46:30;;;;;;;;;3.00;1.00;;;;;28.72;34.10;102152.38;5077834;28;46117;-79
2023/06/27 03:48:58;;;;;;;;;1.00;1.00;;;;;28.70;34.13;102149.06;5076887;27;45403;-79
2023/06/27 03:51:23;;;;;;;;;1.33;1.33;;;;;28.73;34.13;102154.00;5077396;28;45342;-79
2023/06/27 03:53:48;;;;;;;;;2.00;2.00;;;;;28.68;33.73;102145.72;5109834;27;45312;-80
2023/06/27 03:56:14;;;;;;;;;1.00;1.00;;;;;28.71;33.86;102142.66;5076469;27;46203;-80
2023/06/27 03:58:39;;;;;;;;;1.00;1.00;;;;;28.72;34.24;102149.69;5093370;27;45382;-80
2023/06/27 04:01:04;;;;;;;;;2.00;1.00;;;;;28.71;33.77;102150.72;5093137;27;45455;-79
2023/06/27 04:03:31;;;;;;;;;3.67;2.00;;;;;28.70;34.12;102152.56;5076368;28;45304;-79
2023/06/27 04:05:56;;;;;;;;;2.67;1.67;;;;;28.69;33.78;102142.03;5092909;27;48161;-79
2023/06/27 04:08:22;;;;;;;;;1.67;1.00;;;;;28.69;33.90;102142.88;5077676;27;45562;-79
2023/06/27 04:10:48;;;;;;;;;4.00;2.00;;;;;28.73;33.69;102162.03;5077465;27;45373;-79
2023/06/27 04:13:13;;;;;;;;;1.00;1.00;;;;;28.70;33.94;102160.59;5093414;27;45569;-79
2023/06/27 04:15:41;;;;;;;;;4.67;3.00;;;;;28.72;34.10;102155.88;5075623;28;46893;-79
2023/06/27 04:18:07;;;;;;;;;1.00;1.00;;;;;28.67;34.07;102144.09;5077172;28;45347;-79
2023/06/27 04:20:32;;;;;;;;;1.00;1.00;;;;;28.66;33.74;102142.44;5080488;27;45482;-80
2023/06/27 04:22:58;;;;;;;;;2.33;1.33;;;;;28.70;34.05;102149.88;5093146;27;45546;-78
2023/06/27 04:25:23;;;;;;;;;2.00;1.67;;;;;28.66;33.91;102137.06;5077210;28;46635;-79
2023/06/27 04:27:48;;;;;;;;;5.00;1.67;;;;;28.72;33.86;102155.88;5075258;28;45608;-79
2023/06/27 04:30:15;;;;;;;;;1.00;1.00;;;;;28.70;34.27;102154.44;5075949;28;45484;-79
2023/06/27 04:32:40;;;;;;;;;2.00;2.00;;;;;28.59;33.95;102127.16;5077326;28;45547;-79
2023/06/27 04:35:06;;;;;;;;;2.00;2.00;;;;;28.73;34.40;102151.34;5092360;27;46156;-79
2023/06/27 04:37:32;;;;;;;;;1.67;1.67;;;;;28.73;33.82;102154.00;5076417;28;45346;-79
2023/06/27 04:39:57;;;;;;;;;2.33;1.00;;;;;28.73;33.85;102152.16;5076759;27;45365;-79
2023/06/27 04:42:23;;;;;;;;;1.33;1.33;;;;;28.71;34.01;102148.88;5075594;28;45565;-79
2023/06/27 04:44:48;;;;;;;;;0.67;0.67;;;;;28.58;34.31;102130.84;5091704;27;46861;-79
2023/06/27 04:47:13;;;;;;;;;4.00;1.33;;;;;28.72;34.30;102149.69;5075670;27;45411;-79
2023/06/27 04:49:39;;;;;;;;;1.00;1.00;;;;;28.73;34.23;102146.81;5076562;27;45322;-79
2023/06/27 04:52:04;;;;;;;;;2.00;2.00;;;;;28.58;34.23;102122.81;5088262;27;45317;-79
2023/06/27 04:54:30;;;;;;;;;1.00;1.00;;;;;28.73;33.98;102143.31;5056277;27;45381;-79
2023/06/27 04:56:55;;;;;;;;;2.33;1.00;;;;;28.75;33.98;102143.97;5055324;28;45366;-79
2023/06/27 04:59:20;;;;;;;;;2.33;1.33;;;;;28.75;33.98;102141.28;5071912;28;45408;-79
2023/06/27 05:01:46;;;;;;;;;2.67;1.33;;;;;28.78;34.18;102145.41;5056617;28;45378;-79
2023/06/27 05:04:12;;;;;;;;;2.67;2.67;;;;;28.78;34.26;102148.09;5071439;28;47869;-79
2023/06/27 05:06:37;;;;;;;;;2.00;1.00;;;;;28.82;34.61;102155.53;5054997;28;45264;-80
2023/06/27 05:09:03;;;;;;;;;1.00;1.00;;;;;28.84;34.19;102156.16;5088977;27;45407;-79
2023/06/27 05:11:40;;;;;;;;;2.00;2.00;;;;;28.85;34.00;102157.84;5055136;28;45539;-79
2023/06/27 05:14:05;;;;;;;;;2.00;2.00;;;;;28.81;34.42;102153.03;5055720;28;45465;-80
2023/06/27 05:16:31;;;;;;;;;2.00;0.67;;;;;28.82;34.05;102147.50;5055356;28;45336;-80
2023/06/27 05:18:57;;;;;;;;;1.00;1.00;;;;;28.87;34.46;102159.47;5057841;27;45462;-81
2023/06/27 05:21:22;;;;;;;;;1.00;1.00;;;;;28.81;33.88;102148.50;5091173;27;45459;-80
2023/06/27 05:23:47;;;;;;;;;0.00;0.00;;;;;28.87;33.96;102154.94;5076221;27;45214;-80
2023/06/27 05:26:13;;;;;;;;;1.00;1.00;;;;;28.82;33.64;102155.53;5075649;27;45496;-80
2023/06/27 05:28:39;;;;;;;;;1.00;1.00;;;;;28.85;34.41;102152.47;5091978;27;45418;-80
2023/06/27 05:31:04;;;;;;;;;1.33;1.00;;;;;28.87;33.94;102151.44;5076113;27;45489;-80
2023/06/27 05:33:30;;;;;;;;;3.00;2.33;;;;;28.91;33.69;102164.22;5091253;27;47334;-80
2023/06/27 05:35:55;;;;;;;;;1.00;1.00;;;;;28.88;34.19;102153.09;5091468;27;45563;-81
2023/06/27 05:38:20;;;;;;;;;2.00;2.00;;;;;28.94;33.79;102157.66;5076236;27;45573;-80
2023/06/27 05:40:47;;;;;;;;;1.33;1.33;;;;;28.89;33.76;102152.06;5091338;27;45622;-80
2023/06/27 05:43:12;;;;;;;;;1.67;1.33;;;;;28.96;34.14;102167.16;5076396;27;45641;-80
2023/06/27 05:45:38;;;;;;;;;2.33;1.00;;;;;28.91;33.75;102145.47;5074119;28;45544;-80
2023/06/27 05:48:03;;;;;;;;;1.67;1.67;;;;;28.95;34.15;102154.81;5091075;27;45296;-80
2023/06/27 05:50:29;;;;;;;;;3.00;1.00;;;;;28.98;33.92;102150.06;5071397;27;45583;-80
2023/06/27 05:52:54;;;;;;;;;1.00;1.00;;;;;29.00;34.00;102148.84;5053955;28;47868;-81
2023/06/27 05:55:19;;;;;;;;;2.67;2.00;;;;;29.10;33.90;102161.09;5053825;28;45542;-80
2023/06/27 05:57:45;;;;;;;;;0.67;0.67;;;;;29.10;33.86;102158.41;5055116;28;45286;-80
2023/06/27 06:00:11;;;;;;;;;2.00;2.00;;;;;29.07;33.77;102152.38;5055472;27;45746;-80
2023/06/27 06:02:41;;;;;;;;;3.00;1.67;;;;;29.16;34.24;102161.13;5055008;28;45319;-80
2023/06/27 06:05:07;;;;;;;;;3.33;2.00;;;;;29.13;33.94;102150.81;5054067;28;45821;-80
2023/06/27 06:07:33;;;;;;;;;1.00;1.00;;;;;29.16;33.57;102150.41;5053836;28;45406;-79
2023/06/27 06:09:58;;;;;;;;;1.00;1.00;;;;;29.21;33.81;102155.19;5053940;28;45337;-77
2023/06/27 06:12:50;;;;;;;;;1.00;1.00;;;;;29.24;33.34;102156.63;5053865;28;46421;-80
2023/06/27 06:15:15;;;;;;;;;1.33;1.33;;;;;29.30;33.84;102166.56;5036907;28;45575;-79
2023/06/27 06:17:41;;;;;;;;;4.33;1.67;;;;;29.25;33.53;102155.63;5057357;28;45234;-79
2023/06/27 06:20:10;;;;;;;;;2.67;1.00;;;;;29.29;33.77;102163.06;5069107;27;45654;-78
2023/06/27 06:22:55;;;;;;;;;1.33;1.00;;;;;29.27;33.46;102162.44;5078709;27;45734;-80
2023/06/27 06:25:21;;;;;;;;;1.67;1.67;;;;;29.29;33.74;102170.28;5077770;28;45417;-79
2023/06/27 06:27:47;;;;;;;;;3.00;1.00;;;;;29.28;33.31;102163.25;5075539;28;45299;-78
2023/06/27 06:30:12;;;;;;;;;6.67;4.00;;;;;29.19;33.37;102173.31;5078780;27;45316;-83
2023/06/27 06:32:38;;;;;;;;;4.00;2.33;;;;;28.88;33.24;102169.19;5093715;27;46893;-82
2023/06/27 06:35:03;;;;;;;;;2.00;2.00;;;;;28.64;33.73;102161.38;5094610;27;45341;-79
2023/06/27 06:37:29;;;;;;;;;4.67;3.00;;;;;28.42;33.82;102161.34;5079023;27;45559;-82
2023/06/27 06:39:54;;;;;;;;;3.00;3.00;;;;;28.19;34.41;102165.06;5077867;28;45654;-79
2023/06/27 06:42:36;;;;;;;;;3.33;2.00;;;;;28.03;34.76;102176.81;5094083;27;47060;-83
2023/06/27 06:45:02;;;;;;;;;3.33;2.00;;;;;27.81;34.86;102172.28;5062197;28;45374;-84
2023/06/27 06:47:28;;;;;;;;;5.33;2.67;;;;;27.67;35.29;102181.13;5058738;27;45413;-80
2023/06/27 06:49:54;;;;;;;;;4.67;2.00;;;;;27.53;35.38;102183.66;5076542;28;45846;-79
2023/06/27 06:52:19;;;;;;;;;4.00;3.33;;;;;27.41;35.34;102180.59;5076454;27;45430;-78
2023/06/27 06:54:44;;;;;;;;;4.33;3.33;;;;;27.28;35.51;102176.72;5077980;28;45320;-82
2023/06/27 06:57:10;;;;;;;;;5.67;4.00;;;;;26.94;36.05;102159.34;5077766;27;45460;-82
2023/06/27 06:59:36;;;;;;;;;1.67;1.67;;;;;26.95;36.33;102190.41;5078053;27;45450;-78
2023/06/27 07:02:01;;;;;;;;;2.00;2.00;;;;;26.89;36.82;102197.28;5071778;28;46181;-78
2023/06/27 07:04:26;;;;;;;;;5.00;4.00;;;;;26.81;36.21;102178.66;5073072;27;45719;-78
2023/06/27 07:06:52;;;;;;;;;8.00;3.00;;;;;26.87;36.88;102201.16;5089648;27;45494;-78
2023/06/27 07:09:17;;;;;;;;;4.67;2.67;;;;;26.88;37.04;102192.13;5074351;27;45311;-78
2023/06/27 07:11:42;;;;;;;;;3.33;3.33;;;;;26.85;36.83;102185.31;5072148;28;47753;-78
2023/06/27 07:14:08;;;;;;;;;3.67;3.00;;;;;26.85;36.85;102188.00;5073512;27;45505;-78
2023/06/27 07:16:33;;;;;;;;;3.33;1.00;;;;;26.85;37.32;102179.97;5072414;28;45482;-77
2023/06/27 07:18:58;;;;;;;;;4.67;3.67;;;;;26.93;36.86;102193.22;5072253;28;45419;-77
2023/06/27 07:21:24;;;;;;;;;2.00;2.00;;;;;26.94;36.69;102188.72;5073283;28;46327;-78
2023/06/27 07:23:49;;;;;;;;;3.00;2.00;;;;;26.78;36.86;102160.34;5073087;28;45898;-78
2023/06/27 07:26:15;;;;;;;;;5.33;2.67;;;;;26.96;35.90;102194.72;5073962;27;45346;-78
2023/06/27 07:28:40;;;;;;;;;3.00;1.67;;;;;26.93;37.05;102182.53;5072207;27;45418;-78
2023/06/27 07:31:06;;;;;;;;;4.67;2.00;;;;;26.91;36.11;102181.91;5088627;27;48074;-78
2023/06/27 07:33:31;;;;;;;;;2.00;2.00;;;;;26.91;36.40;102181.06;5071657;28;45859;-78
2023/06/27 07:35:57;;;;;;;;;2.33;2.00;;;;;26.87;36.68;102182.44;5073825;27;45663;-78
2023/06/27 07:38:22;;;;;;;;;4.00;2.33;;;;;26.89;36.88;102185.78;5089784;27;45296;-78
2023/06/27 07:40:47;;;;;;;;;4.33;2.00;;;;;26.87;36.72;102180.63;5072938;28;48230;-78
2023/06/27 07:43:13;;;;;;;;;3.00;3.00;;;;;26.88;36.81;102184.13;5072052;28;46700;-78
2023/06/27 07:45:38;;;;;;;;;5.33;2.67;;;;;26.85;36.83;102183.44;5073606;28;45398;-78
2023/06/27 07:48:04;;;;;;;;;5.67;2.00;;;;;26.85;36.88;102172.78;5074054;28;45572;-78
2023/06/27 07:50:29;;;;;;;;;5.00;3.00;;;;;26.81;36.73;102170.66;5069350;28;45559;-78
2023/06/27 07:52:55;;;;;;;;;3.33;2.00;;;;;26.83;36.53;102173.97;5073592;28;45437;-78
2023/06/27 07:55:20;;;;;;;;;3.00;3.00;;;;;26.88;36.12;102176.91;5072048;28;45453;-78
2023/06/27 07:57:46;;;;;;;;;2.00;2.00;;;;;26.91;36.22;102171.22;5071829;28;45593;-78
2023/06/27 08:00:12;;;;;;;;;2.33;2.00;;;;;26.87;35.87;102164.59;5072424;28;46605;-78
2023/06/27 08:02:38;;;;;;;;;3.00;3.00;;;;;26.88;35.37;102168.09;5072822;27;45314;-77
2023/06/27 08:05:04;;;;;;;;;3.00;3.00;;;;;26.94;35.28;102186.06;5072129;28;45615;-77
2023/06/27 08:07:29;;;;;;;;;3.67;1.67;;;;;26.89;35.03;102177.75;5071670;28;45517;-77
2023/06/27 08:09:55;;;;;;;;;2.67;1.00;;;;;26.87;35.45;102174.44;5072342;28;45529;-78
2023/06/27 08:12:20;;;;;;;;;3.33;2.67;;;;;26.93;35.35;102176.41;5072601;28;45427;-78
2023/06/27 08:14:47;;;;;;;;;2.67;2.00;;;;;26.91;34.68;102167.72;5073307;27;45582;-77
2023/06/27 08:17:12;;;;;;;;;1.67;1.67;;;;;26.93;34.66;102173.72;5073341;27;45633;-78
2023/06/27 08:19:38;;;;;;;;;1.67;1.67;;;;;26.93;34.42;102168.38;5072523;27;45879;-77
2023/06/27 08:22:03;;;;;;;;;2.67;2.00;;;;;26.90;34.53;102158.06;5088607;27;45273;-77
2023/06/27 08:24:28;;;;;;;;;3.33;1.33;;;;;26.89;34.08;102154.56;5072957;27;45425;-77
2023/06/27 08:26:55;;;;;;;;;2.67;2.67;;;;;26.90;33.94;102168.75;5071365;28;45491;-78
2023/06/27 08:29:23;;;;;;;;;3.00;3.00;;;;;26.98;33.76;102165.16;5073077;27;46421;-77
2023/06/27 08:31:49;;;;;;;;;3.00;1.00;;;;;27.00;33.90;102171.16;5072102;28;45529;-78
2023/06/27 08:34:15;;;;;;;;;2.00;1.00;;;;;26.95;34.34;102147.66;5073800;27;45474;-77
2023/06/27 08:36:40;;;;;;;;;4.00;2.00;;;;;27.03;34.23;102149.44;5105332;27;45240;-77
2023/06/27 08:39:05;;;;;;;;;3.33;2.00;;;;;27.04;34.04;102141.22;5072716;27;45420;-78
2023/06/27 08:41:31;;;;;;;;;1.00;1.00;;;;;27.07;34.15;102138.19;5071878;28;45581;-77
2023/06/27 08:43:56;;;;;;;;;2.00;2.00;;;;;27.12;34.67;102128.78;5088577;27;45373;-78
2023/06/27 08:46:23;;;;;;;;;3.00;1.00;;;;;27.18;34.53;102133.44;5072513;27;45469;-78
2023/06/27 08:48:52;;;;;;;;;6.00;1.33;;;;;27.25;34.18;102136.19;5088775;27;47586;-77
2023/06/27 08:51:21;;;;;;;;;2.00;2.00;;;;;27.33;34.12;102143.28;5071597;27;45296;-77
2023/06/27 08:53:49;;;;;;;;;1.33;1.33;;;;;27.35;34.40;102138.59;5071428;28;45459;-77
2023/06/27 08:56:18;;;;;;;;;2.00;1.00;;;;;27.36;34.04;102130.38;5072860;27;45778;-77
2023/06/27 08:58:51;;;;;;;;;1.67;1.67;;;;;27.51;34.64;102143.72;5087663;27;46402;-78
2023/06/27 09:01:17;;;;;;;;;5.00;2.00;;;;;27.52;34.10;102136.53;5071354;28;45597;-77
2023/06/27 09:03:43;;;;;;;;;1.00;1.00;;;;;27.62;34.20;102146.94;5071667;27;45513;-76
2023/06/27 09:06:11;;;;;;;;;3.33;2.00;;;;;27.65;33.68;102143.91;5087972;27;45376;-77
2023/06/27 09:08:36;;;;;;;;;2.00;2.00;;;;;27.66;33.98;102142.88;5087547;27;47389;-77
2023/06/27 09:11:08;;;;;;;;;3.00;2.33;;;;;27.65;33.72;102140.38;5070266;28;45368;-77
2023/06/27 09:13:34;;;;;;;;;2.67;1.00;;;;;27.65;33.90;102146.56;5071976;28;45751;-78
2023/06/27 09:15:59;;;;;;;;;1.00;1.00;;;;;27.69;33.25;102147.84;5071866;27;45484;-77
2023/06/27 09:18:24;;;;;;;;;3.00;1.00;;;;;27.75;33.49;102148.94;5086937;27;47421;-78
2023/06/27 09:20:50;;;;;;;;;3.00;2.00;;;;;27.70;32.70;102135.31;5072071;27;45338;-78
2023/06/27 09:23:15;;;;;;;;;2.00;2.00;;;;;27.77;32.45;102138.03;5072815;28;45421;-77
2023/06/27 09:25:41;;;;;;;;;3.33;1.67;;;;;27.74;32.68;102137.41;5087476;27;46504;-78
2023/06/27 09:28:16;;;;;;;;;1.33;1.00;;;;;27.83;32.23;102142.69;5072048;28;46082;-77
2023/06/27 09:30:55;;;;;;;;;2.00;1.00;;;;;27.82;32.50;102136.50;5071216;28;45491;-77
2023/06/27 09:33:21;;;;;;;;;2.00;1.00;;;;;27.89;32.11;102139.25;5072114;28;45435;-77
2023/06/27 09:35:47;;;;;;;;;2.33;1.00;;;;;27.95;32.37;102140.31;5088372;27;45781;-77
2023/06/27 09:38:12;;;;;;;;;3.00;1.67;;;;;27.99;32.75;102136.28;5086592;27;47936;-76
2023/06/27 09:40:38;;;;;;;;;1.67;1.67;;;;;28.02;32.35;102135.91;5069461;28;45418;-77
2023/06/27 09:43:06;;;;;;;;;1.00;1.00;;;;;28.07;32.55;102135.31;5070224;27;45489;-78
2023/06/27 09:45:31;;;;;;;;;2.33;1.00;;;;;28.04;32.63;102127.69;5071181;28;45641;-77
2023/06/27 09:47:59;;;;;;;;;1.67;1.67;;;;;28.08;32.47;102115.56;5070182;28;47266;-76
2023/06/27 09:50:28;;;;;;;;;7.00;2.67;;;;;28.15;32.69;102123.66;5071312;28;45469;-76
2023/06/27 09:52:57;;;;;;;;;2.00;0.33;;;;;28.13;32.76;102118.50;5068232;28;45621;-76
2023/06/27 09:55:23;;;;;;;;;1.00;0.33;;;;;28.16;32.97;102112.75;5071184;27;45508;-75
2023/06/27 09:57:48;;;;;;;;;2.00;2.00;;;;;28.23;32.79;102128.06;5071426;28;45843;-76
2023/06/27 10:00:20;;;;;;;;;1.00;1.00;;;;;28.28;32.87;102114.94;5086675;27;45882;-75
2023/06/27 10:02:49;;;;;;;;;3.00;2.00;;;;;28.31;32.82;102117.22;5071168;28;45478;-76
2023/06/27 10:05:20;;;;;;;;;2.00;2.00;;;;;28.34;32.89;102122.19;5070319;28;46370;-77
2023/06/27 10:07:48;;;;;;;;;2.00;2.00;;;;;28.35;33.05;102120.34;5065657;28;48234;-76
2023/06/27 10:10:14;;;;;;;;;2.67;2.00;;;;;28.33;32.77;102106.31;5086768;27;45850;-76
2023/06/27 10:12:41;;;;;;;;;2.00;2.00;;;;;28.34;32.82;102102.63;5071443;28;45977;-76
2023/06/27 10:15:08;;;;;;;;;2.00;2.00;;;;;28.41;32.64;102106.19;5071572;27;45610;-78
2023/06/27 10:17:34;;;;;;;;;2.00;2.00;;;;;28.43;33.12;102108.66;5070627;28;45587;-76
2023/06/27 10:20:00;;;;;;;;;2.33;1.00;;;;;28.45;32.52;102114.66;5070927;28;45498;-76
2023/06/27 10:22:30;;;;;;;;;3.00;2.33;;;;;28.44;32.64;102116.50;5070778;27;46515;-77
2023/06/27 10:25:04;;;;;;;;;2.00;2.00;;;;;28.38;33.03;102093.19;5070032;28;45563;-77
2023/06/27 10:27:33;;;;;;;;;1.33;1.00;;;;;28.50;32.71;102107.72;5069469;28;46746;-76
2023/06/27 10:30:03;;;;;;;;;4.67;2.00;;;;;28.52;33.04;102105.69;5071640;28;45463;-76
2023/06/27 10:32:46;;;;;;;;;1.67;1.67;;;;;28.51;32.63;102105.88;5070848;28;45377;-76
2023/06/27 10:35:24;;;;;;;;;0.67;0.67;;;;;28.50;33.11;102101.53;5069914;28;45760;-76
2023/06/27 10:38:08;;;;;;;;;2.33;1.67;;;;;28.55;33.10;102115.16;5070531;27;46267;-76
2023/06/27 10:41:06;;;;;;;;;4.33;2.67;;;;;28.60;32.97;102119.94;5069395;28;46602;-76
2023/06/27 10:43:35;;;;;;;;;2.33;2.33;;;;;28.60;32.77;102122.59;5070334;28;45526;-76
2023/06/27 10:46:09;;;;;;;;;2.33;1.67;;;;;28.54;33.01;102108.16;5086333;27;45608;-76
2023/06/27 10:48:46;;;;;;;;;2.00;2.00;;;;;28.59;32.79;102115.63;5086577;27;45681;-75
2023/06/27 10:51:15;;;;;;;;;1.67;1.33;;;;;28.61;32.92;102119.75;5070517;28;45438;-75
2023/06/27 10:54:11;;;;;;;;;3.67;2.33;;;;;28.61;33.20;102119.75;5070643;27;45502;-76
2023/06/27 10:56:50;;;;;;;;;2.00;2.00;;;;;28.63;32.78;102122.22;5069379;28;45557;-77
2023/06/27 10:59:21;;;;;;;;;1.00;0.67;;;;;28.58;33.35;102109.44;5071024;28;46483;-76
2023/06/27 11:01:52;;;;;;;;;4.00;2.00;;;;;28.59;33.19;102116.44;5071322;27;45552;-76
2023/06/27 11:04:25;;;;;;;;;1.33;1.33;;;;;28.60;33.00;102109.22;5066092;27;45520;-74
2023/06/27 11:07:00;;;;;;;;;4.00;2.00;;;;;28.63;33.52;102116.88;5069730;28;45810;-78
2023/06/27 11:09:28;;;;;;;;;3.33;2.00;;;;;28.61;33.13;102110.88;5072804;27;45912;-79
2023/06/27 11:12:17;;;;;;;;;2.00;2.00;;;;;28.67;33.06;102118.16;5073447;28;45315;-76
2023/06/27 11:14:44;;;;;;;;;1.67;1.33;;;;;28.63;33.38;102117.69;5071526;27;45582;-78
2023/06/27 11:17:13;;;;;;;;;1.00;1.00;;;;;28.68;33.21;102105.56;5073705;27;45596;-77
2023/06/27 11:19:40;;;;;;;;;3.00;1.00;;;;;28.70;33.41;102108.91;5072289;28;46089;-78
2023/06/27 11:22:06;;;;;;;;;2.33;1.00;;;;;28.63;33.62;102088.25;5073279;28;45497;-78
2023/06/27 11:24:32;;;;;;;;;4.00;3.00;;;;;28.72;33.98;102101.50;5072920;27;45504;-78